createdAt,value
2022-08-28T00:01:39.963Z,17.76
2022-08-28T00:04:42.536Z,17.63
2022-08-28T00:07:47.869Z,17.84
2022-08-28T00:10:50.074Z,17.91
2022-08-28T00:13:51.878Z,17.83
2022-08-28T00:16:54.704Z,17.77
2022-08-28T00:19:56.656Z,17.88
2022-08-28T00:22:59.575Z,17.87
2022-08-28T00:26:02.606Z,17.80
2022-08-28T00:29:06.858Z,17.88
2022-08-28T00:32:08.904Z,17.85
2022-08-28T00:35:12.516Z,17.79
2022-08-28T00:38:15.440Z,17.83
2022-08-28T00:41:17.661Z,17.77
2022-08-28T00:44:29.035Z,17.70
2022-08-28T00:47:30.899Z,17.69
2022-08-28T00:50:54.598Z,17.71
2022-08-28T00:54:07.371Z,17.70
2022-08-28T00:57:15.349Z,17.60
2022-08-28T01:00:25.445Z,17.63
2022-08-28T01:03:27.525Z,17.59
2022-08-28T01:06:29.239Z,17.45
2022-08-28T01:09:32.850Z,17.46
2022-08-28T01:12:35.807Z,17.44
2022-08-28T01:15:39.095Z,17.43
2022-08-28T01:18:43.197Z,17.37
2022-08-28T01:22:04.809Z,17.41
2022-08-28T01:25:11.507Z,17.34
2022-08-28T01:28:14.501Z,17.26
2022-08-28T01:31:17.270Z,17.23
2022-08-28T01:34:19.146Z,17.30
2022-08-28T01:37:21.124Z,17.16
2022-08-28T01:40:32.646Z,17.16
2022-08-28T01:43:34.562Z,17.18
2022-08-28T01:46:36.570Z,17.06
2022-08-28T01:49:38.369Z,17.08
2022-08-28T01:52:40.405Z,17.04
2022-08-28T01:55:43.532Z,16.99
2022-08-28T01:58:48.160Z,16.96
2022-08-28T02:01:50.040Z,16.93
2022-08-28T02:04:53.310Z,16.98
2022-08-28T02:07:56.062Z,16.92
2022-08-28T02:10:58.028Z,16.93
2022-08-28T02:14:01.503Z,17.05
2022-08-28T02:17:03.325Z,17.03
2022-08-28T02:20:06.028Z,16.93
2022-08-28T02:23:07.786Z,16.98
2022-08-28T02:26:11.193Z,16.97
2022-08-28T02:29:13.551Z,16.81
2022-08-28T02:32:15.474Z,16.85
2022-08-28T02:35:19.649Z,16.76
2022-08-28T02:38:22.702Z,16.75
2022-08-28T02:41:24.694Z,16.72
2022-08-28T02:44:26.428Z,16.69
2022-08-28T02:47:28.317Z,16.79
2022-08-28T02:50:31.181Z,16.76
2022-08-28T02:53:33.035Z,16.62
2022-08-28T02:56:34.745Z,16.58
2022-08-28T02:59:38.001Z,16.69
2022-08-28T03:02:41.708Z,16.63
2022-08-28T03:05:43.659Z,16.48
2022-08-28T03:08:45.436Z,16.50
2022-08-28T03:11:47.256Z,16.55
2022-08-28T03:14:49.074Z,16.43
2022-08-28T03:17:51.174Z,16.50
2022-08-28T03:20:54.105Z,16.45
2022-08-28T03:23:55.842Z,16.42
2022-08-28T03:26:58.408Z,16.41
2022-08-28T03:30:00.256Z,16.27
2022-08-28T03:33:02.120Z,16.16
2022-08-28T03:36:04.886Z,16.12
2022-08-28T03:39:06.974Z,16.14
2022-08-28T03:42:09.127Z,16.18
2022-08-28T03:45:14.714Z,16.15
2022-08-28T03:48:16.814Z,16.32
2022-08-28T03:51:29.559Z,16.36
2022-08-28T03:54:33.516Z,16.41
2022-08-28T03:57:36.915Z,16.34
2022-08-28T04:00:40.415Z,16.31
2022-08-28T04:03:42.170Z,16.38
2022-08-28T04:06:43.938Z,16.42
2022-08-28T04:09:46.384Z,16.30
2022-08-28T04:12:48.262Z,16.31
2022-08-28T04:16:02.673Z,16.00
2022-08-28T04:19:08.340Z,16.00
2022-08-28T04:22:10.057Z,16.06
2022-08-28T04:25:11.821Z,16.18
2022-08-28T04:28:13.772Z,16.27
2022-08-28T04:31:17.044Z,16.22
2022-08-28T04:34:19.630Z,16.19
2022-08-28T04:37:21.765Z,16.15
2022-08-28T04:40:28.115Z,15.99
2022-08-28T04:43:29.906Z,15.94
2022-08-28T04:46:31.835Z,16.16
2022-08-28T04:49:33.735Z,16.09
2022-08-28T04:52:35.487Z,16.02
2022-08-28T04:55:54.903Z,16.03
2022-08-28T04:58:57.402Z,15.95
2022-08-28T05:01:59.195Z,15.91
2022-08-28T05:05:00.963Z,15.93
2022-08-28T05:08:02.880Z,15.97
2022-08-28T05:11:32.655Z,16.02
2022-08-28T05:14:36.745Z,16.00
2022-08-28T05:17:38.557Z,15.95
2022-08-28T05:20:44.718Z,16.16
2022-08-28T05:23:47.558Z,16.25
2022-08-28T05:26:49.409Z,16.16
2022-08-28T05:29:51.190Z,16.05
2022-08-28T05:32:53.663Z,16.21
2022-08-28T05:35:55.468Z,16.12
2022-08-28T05:38:58.535Z,16.11
2022-08-28T05:42:00.320Z,16.16
2022-08-28T05:45:02.212Z,16.03
2022-08-28T05:48:04.168Z,16.14
2022-08-28T05:51:11.603Z,16.29
2022-08-28T05:54:14.997Z,16.47
2022-08-28T05:57:16.674Z,16.52
2022-08-28T06:00:18.494Z,16.54
2022-08-28T06:03:20.718Z,16.50
2022-08-28T06:06:24.821Z,16.53
2022-08-28T06:09:30.068Z,16.48
2022-08-28T06:12:32.097Z,16.56
2022-08-28T06:15:34.146Z,16.56
2022-08-28T06:18:35.941Z,16.68
2022-08-28T06:21:39.045Z,16.75
2022-08-28T06:24:40.874Z,16.82
2022-08-28T06:27:48.053Z,16.96
2022-08-28T06:31:17.875Z,17.01
2022-08-28T06:34:14.141Z,17.08
2022-08-28T06:37:15.900Z,17.09
2022-08-28T06:40:17.664Z,17.22
2022-08-28T06:43:22.701Z,17.27
2022-08-28T06:46:25.586Z,17.29
2022-08-28T06:49:27.479Z,17.39
2022-08-28T06:52:30.348Z,17.56
2022-08-28T06:55:32.168Z,17.70
2022-08-28T06:58:43.428Z,17.81
2022-08-28T07:01:55.565Z,17.80
2022-08-28T07:04:57.523Z,17.90
2022-08-28T07:07:59.367Z,17.97
2022-08-28T07:11:28.789Z,18.13
2022-08-28T07:14:30.586Z,18.38
2022-08-28T07:17:32.783Z,18.46
2022-08-28T07:20:34.608Z,18.80
2022-08-28T07:23:38.114Z,18.99
2022-08-28T07:26:42.457Z,19.15
2022-08-28T07:29:44.368Z,19.29
2022-08-28T07:32:49.753Z,19.53
2022-08-28T07:35:51.543Z,19.87
2022-08-28T07:38:55.705Z,20.10
2022-08-28T07:41:57.378Z,20.00
2022-08-28T07:44:59.442Z,20.16
2022-08-28T07:48:05.809Z,20.07
2022-08-28T07:51:10.463Z,20.42
2022-08-28T07:54:17.589Z,20.55
2022-08-28T07:57:21.260Z,20.02
2022-08-28T08:00:24.655Z,20.14
2022-08-28T08:03:26.749Z,20.05
2022-08-28T08:06:33.130Z,20.19
2022-08-28T08:09:39.013Z,19.95
2022-08-28T08:12:42.796Z,19.91
2022-08-28T08:15:44.807Z,20.22
2022-08-28T08:18:48.787Z,20.29
2022-08-28T08:21:53.236Z,20.27
2022-08-28T08:24:57.484Z,20.52
2022-08-28T08:27:59.688Z,20.68
2022-08-28T08:31:09.477Z,21.09
2022-08-28T08:34:11.564Z,21.43
2022-08-28T08:37:14.437Z,21.59
2022-08-28T08:40:19.610Z,21.73
2022-08-28T08:43:23.259Z,22.13
2022-08-28T08:46:34.135Z,21.85
2022-08-28T08:49:41.403Z,22.04
2022-08-28T08:53:03.514Z,21.98
2022-08-28T08:56:06.419Z,22.05
2022-08-28T08:59:16.851Z,22.02
2022-08-28T09:02:31.289Z,22.09
2022-08-28T09:05:48.513Z,22.06
2022-08-28T09:08:59.155Z,22.23
2022-08-28T09:12:05.755Z,22.31
2022-08-28T09:15:18.480Z,22.25
2022-08-28T09:18:34.681Z,22.19
2022-08-28T09:21:42.031Z,22.54
2022-08-28T09:24:45.373Z,22.26
2022-08-28T09:27:47.953Z,22.09
2022-08-28T09:31:06.810Z,22.35
2022-08-28T09:34:25.303Z,22.77
2022-08-28T09:37:29.991Z,22.95
2022-08-28T09:40:51.751Z,23.18
2022-08-28T09:43:53.935Z,23.63
2022-08-28T09:46:55.758Z,23.74
2022-08-28T09:50:16.353Z,23.81
2022-08-28T09:53:22.102Z,24.29
2022-08-28T09:56:41.956Z,23.91
2022-08-28T09:59:43.793Z,23.97
2022-08-28T10:03:10.571Z,24.15
2022-08-28T10:06:38.771Z,24.05
2022-08-28T10:10:17.335Z,24.22
2022-08-28T10:13:30.961Z,24.54
2022-08-28T10:16:47.210Z,24.28
2022-08-28T10:20:13.237Z,24.99
2022-08-28T10:23:30.690Z,25.61
2022-08-28T10:26:59.688Z,25.89
2022-08-28T10:30:13.337Z,25.99
2022-08-28T10:33:52.350Z,25.63
2022-08-28T10:37:24.206Z,25.55
2022-08-28T10:40:34.877Z,25.00
2022-08-28T10:43:48.104Z,24.94
2022-08-28T10:46:55.664Z,25.26
2022-08-28T10:50:05.230Z,24.85
2022-08-28T10:53:14.590Z,24.98
2022-08-28T10:56:25.609Z,24.71
2022-08-28T10:59:31.994Z,24.44
2022-08-28T11:02:37.464Z,24.40
2022-08-28T11:06:11.858Z,24.58
2022-08-28T11:09:29.948Z,25.04
2022-08-28T11:12:41.793Z,25.20
2022-08-28T11:15:52.643Z,25.93
2022-08-28T11:19:16.007Z,26.62
2022-08-28T11:22:23.450Z,26.89
2022-08-28T11:25:35.676Z,26.20
2022-08-28T11:28:47.511Z,25.42
2022-08-28T11:32:29.534Z,25.05
2022-08-28T11:35:42.068Z,24.76
2022-08-28T11:38:44.031Z,24.56
2022-08-28T11:42:10.918Z,24.73
2022-08-28T11:45:40.018Z,24.57
2022-08-28T11:48:53.951Z,24.46
2022-08-28T11:52:20.599Z,24.55
2022-08-28T11:55:34.141Z,24.57
2022-08-28T11:59:10.641Z,24.80
2022-08-28T12:02:40.749Z,25.31
2022-08-28T12:05:45.894Z,25.66
2022-08-28T12:08:47.828Z,25.89
2022-08-28T12:11:51.623Z,26.17
2022-08-28T12:14:56.346Z,26.43
2022-08-28T12:18:03.014Z,26.58
2022-08-28T12:21:08.712Z,26.71
2022-08-28T12:24:35.147Z,27.32
2022-08-28T12:27:39.125Z,26.82
2022-08-28T12:31:06.941Z,27.11
2022-08-28T12:34:31.762Z,27.18
2022-08-28T12:37:52.636Z,27.91
2022-08-28T12:40:58.043Z,26.93
2022-08-28T12:44:00.635Z,27.38
2022-08-28T12:47:02.445Z,27.56
2022-08-28T12:50:22.680Z,27.69
2022-08-28T12:53:24.976Z,27.78
2022-08-28T12:56:34.059Z,27.59
2022-08-28T12:59:42.183Z,27.27
2022-08-28T13:02:46.499Z,27.62
2022-08-28T13:06:00.256Z,27.12
2022-08-28T13:09:14.833Z,27.26
2022-08-28T13:12:22.789Z,27.34
2022-08-28T13:16:02.263Z,27.30
2022-08-28T13:19:04.192Z,28.09
2022-08-28T13:22:27.939Z,27.66
2022-08-28T13:25:38.770Z,27.38
2022-08-28T13:28:42.872Z,27.94
2022-08-28T13:31:45.280Z,27.50
2022-08-28T13:35:25.558Z,27.98
2022-08-28T13:38:28.319Z,28.61
2022-08-28T13:41:33.068Z,28.94
2022-08-28T13:44:54.536Z,29.29
2022-08-28T13:47:56.337Z,29.89
2022-08-28T13:51:14.269Z,30.15
2022-08-28T13:54:25.224Z,29.42
2022-08-28T13:57:29.655Z,28.44
2022-08-28T14:00:36.818Z,28.30
2022-08-28T14:03:42.143Z,28.07
2022-08-28T14:06:45.391Z,27.84
2022-08-28T14:09:47.130Z,27.72
2022-08-28T14:12:50.271Z,28.67
2022-08-28T14:15:52.447Z,28.95
2022-08-28T14:18:54.750Z,28.91
2022-08-28T14:21:57.622Z,29.10
2022-08-28T14:24:59.373Z,29.28
2022-08-28T14:28:01.327Z,28.94
2022-08-28T14:31:08.942Z,29.20
2022-08-28T14:34:17.637Z,28.80
2022-08-28T14:37:20.111Z,29.35
2022-08-28T14:40:22.358Z,29.30
2022-08-28T14:43:24.272Z,29.67
2022-08-28T14:46:33.814Z,28.94
2022-08-28T14:49:36.026Z,29.31
2022-08-28T14:52:39.002Z,28.83
2022-08-28T14:55:50.605Z,29.29
2022-08-28T14:58:52.430Z,29.07
2022-08-28T15:02:02.202Z,28.66
2022-08-28T15:05:04.311Z,28.76
2022-08-28T15:08:14.014Z,29.59
2022-08-28T15:11:18.964Z,29.82
2022-08-28T15:14:20.703Z,29.55
2022-08-28T15:17:23.660Z,29.37
2022-08-28T15:20:45.364Z,29.23
2022-08-28T15:23:50.573Z,28.82
2022-08-28T15:26:52.594Z,29.16
2022-08-28T15:29:56.346Z,29.20
2022-08-28T15:33:28.979Z,29.17
2022-08-28T15:36:30.907Z,29.26
2022-08-28T15:39:56.217Z,29.43
2022-08-28T15:42:58.796Z,29.32
2022-08-28T15:46:21.067Z,28.54
2022-08-28T15:49:25.125Z,28.89
2022-08-28T15:52:27.118Z,28.30
2022-08-28T15:55:30.404Z,28.69
2022-08-28T15:58:32.117Z,28.76
2022-08-28T16:01:35.868Z,29.05
2022-08-28T16:04:41.297Z,29.01
2022-08-28T16:07:48.372Z,28.60
2022-08-28T16:10:51.649Z,28.75
2022-08-28T16:13:54.193Z,28.83
2022-08-28T16:16:56.262Z,28.59
2022-08-28T16:19:58.061Z,28.52
2022-08-28T16:22:59.880Z,28.29
2022-08-28T16:26:05.541Z,28.39
2022-08-28T16:29:07.818Z,27.87
2022-08-28T16:32:09.656Z,27.85
2022-08-28T16:35:15.056Z,27.94
2022-08-28T16:38:17.683Z,27.77
2022-08-28T16:41:24.963Z,28.09
2022-08-28T16:44:30.188Z,27.55
2022-08-28T16:47:33.622Z,27.74
2022-08-28T16:50:35.638Z,27.59
2022-08-28T16:53:39.033Z,27.39
2022-08-28T16:56:40.816Z,27.07
2022-08-28T16:59:43.440Z,27.20
2022-08-28T17:02:45.594Z,27.22
2022-08-28T17:05:47.462Z,27.22
2022-08-28T17:08:52.291Z,26.94
2022-08-28T17:11:59.024Z,26.88
2022-08-28T17:15:01.563Z,26.83
2022-08-28T17:18:03.276Z,26.69
2022-08-28T17:21:24.084Z,26.43
2022-08-28T17:24:25.985Z,26.29
2022-08-28T17:27:28.267Z,25.99
2022-08-28T17:30:30.370Z,25.57
2022-08-28T17:33:32.777Z,25.44
2022-08-28T17:36:36.787Z,25.53
2022-08-28T17:39:38.661Z,25.37
2022-08-28T17:42:40.652Z,25.08
2022-08-28T17:45:42.595Z,25.13
2022-08-28T17:48:47.943Z,25.15
2022-08-28T17:51:57.790Z,24.92
2022-08-28T17:55:00.201Z,24.82
2022-08-28T17:58:02.734Z,24.69
2022-08-28T18:01:05.076Z,24.56
2022-08-28T18:04:06.849Z,24.48
2022-08-28T18:07:09.095Z,24.31
2022-08-28T18:10:11.798Z,24.33
2022-08-28T18:13:15.029Z,24.07
2022-08-28T18:16:17.232Z,24.05
2022-08-28T18:19:19.800Z,23.79
2022-08-28T18:22:21.486Z,23.71
2022-08-28T18:25:41.614Z,23.51
2022-08-28T18:28:45.128Z,23.26
2022-08-28T18:31:46.845Z,23.19
2022-08-28T18:34:49.008Z,22.99
2022-08-28T18:37:51.278Z,22.94
2022-08-28T18:40:53.574Z,22.83
2022-08-28T18:43:56.298Z,22.79
2022-08-28T18:47:00.883Z,22.80
2022-08-28T18:50:05.042Z,22.79
2022-08-28T18:53:06.937Z,22.84
2022-08-28T18:56:08.809Z,22.69
2022-08-28T18:59:12.692Z,22.44
2022-08-28T19:02:15.975Z,22.35
2022-08-28T19:05:17.903Z,22.25
2022-08-28T19:08:19.614Z,22.05
2022-08-28T19:11:21.458Z,21.94
2022-08-28T19:14:23.700Z,21.93
2022-08-28T19:17:26.733Z,22.02
2022-08-28T19:20:30.008Z,21.99
2022-08-28T19:23:32.813Z,21.95
2022-08-28T19:26:34.969Z,22.02
2022-08-28T19:29:38.368Z,21.99
2022-08-28T19:32:41.561Z,22.02
2022-08-28T19:35:43.943Z,21.89
2022-08-28T19:38:45.766Z,21.86
2022-08-28T19:41:47.467Z,22.01
2022-08-28T19:44:59.598Z,22.04
2022-08-28T19:48:01.839Z,22.09
2022-08-28T19:51:14.355Z,22.09
2022-08-28T19:54:19.786Z,22.11
2022-08-28T19:57:21.400Z,22.12
2022-08-28T20:00:29.519Z,22.26
2022-08-28T20:03:31.484Z,22.28
2022-08-28T20:06:35.061Z,22.24
2022-08-28T20:09:37.034Z,22.42
2022-08-28T20:12:39.943Z,22.35
2022-08-28T20:15:50.073Z,22.35
2022-08-28T20:18:52.116Z,22.29
2022-08-28T20:21:54.649Z,22.37
2022-08-28T20:24:56.341Z,22.32
2022-08-28T20:28:01.555Z,22.34
2022-08-28T20:31:08.746Z,22.27
2022-08-28T20:34:12.268Z,22.03
2022-08-28T20:37:14.210Z,21.87
2022-08-28T20:40:19.916Z,21.77
2022-08-28T20:43:21.501Z,21.56
2022-08-28T20:46:23.584Z,21.33
2022-08-28T20:49:25.407Z,21.25
2022-08-28T20:52:27.176Z,21.17
2022-08-28T20:55:28.915Z,21.23
2022-08-28T20:58:30.680Z,21.27
2022-08-28T21:01:33.838Z,21.25
2022-08-28T21:04:36.910Z,21.12
2022-08-28T21:07:40.416Z,21.14
2022-08-28T21:10:43.316Z,21.05
2022-08-28T21:13:45.217Z,20.86
2022-08-28T21:16:47.029Z,20.77
2022-08-28T21:19:52.019Z,20.81
2022-08-28T21:22:54.432Z,20.63
2022-08-28T21:25:56.128Z,20.36
2022-08-28T21:28:57.887Z,20.39
2022-08-28T21:32:00.013Z,20.22
2022-08-28T21:35:04.357Z,20.42
2022-08-28T21:38:06.064Z,20.33
2022-08-28T21:41:12.354Z,20.17
2022-08-28T21:44:14.281Z,20.16
2022-08-28T21:47:16.079Z,20.16
2022-08-28T21:50:18.340Z,20.21
2022-08-28T21:53:20.069Z,20.05
2022-08-28T21:56:24.840Z,20.00
2022-08-28T21:59:26.680Z,19.90
2022-08-28T22:02:34.407Z,19.83
2022-08-28T22:05:36.250Z,19.86
2022-08-28T22:08:39.301Z,19.94
2022-08-28T22:11:41.381Z,19.93
2022-08-28T22:14:43.673Z,19.90
2022-08-28T22:17:45.405Z,19.91
2022-08-28T22:21:06.295Z,19.84
2022-08-28T22:24:09.014Z,19.87
2022-08-28T22:27:13.472Z,19.86
2022-08-28T22:30:15.262Z,19.88
2022-08-28T22:33:16.917Z,19.65
2022-08-28T22:36:20.006Z,19.76
2022-08-28T22:39:21.755Z,19.66
2022-08-28T22:42:23.611Z,19.63
2022-08-28T22:45:25.730Z,19.54
2022-08-28T22:48:27.472Z,19.42
2022-08-28T22:51:34.458Z,19.24
2022-08-28T22:54:36.324Z,19.26
2022-08-28T22:57:38.138Z,19.34
2022-08-28T23:00:41.178Z,19.32
2022-08-28T23:03:43.413Z,19.14
2022-08-28T23:06:45.381Z,19.07
2022-08-28T23:09:47.504Z,19.17
2022-08-28T23:12:49.943Z,19.09
2022-08-28T23:15:51.765Z,18.98
2022-08-28T23:19:08.658Z,18.89
2022-08-28T23:22:11.280Z,18.93
2022-08-28T23:25:15.994Z,18.77
2022-08-28T23:28:18.918Z,18.69
2022-08-28T23:31:20.994Z,18.71
2022-08-28T23:34:23.572Z,18.73
2022-08-28T23:37:26.026Z,18.65
2022-08-28T23:40:28.137Z,18.56
2022-08-28T23:43:32.479Z,18.56
2022-08-28T23:46:34.383Z,18.52
2022-08-28T23:49:41.668Z,18.68
2022-08-28T23:52:45.269Z,18.73
2022-08-28T23:55:48.626Z,18.71
2022-08-28T23:58:53.221Z,18.68
